sensor_id;sensor_type;location;lat;lon;timestamp;temperature;humidity
37446;DHT22;23307;51.136;14.942;2023-02-03T00:00:37;3.20;99.90
37446;DHT22;23307;51.136;14.942;2023-02-03T00:03:02;3.20;99.90
37446;DHT22;23307;51.136;14.942;2023-02-03T00:05:28;3.30;99.90
37446;DHT22;23307;51.136;14.942;2023-02-03T00:07:54;3.30;99.90
37446;DHT22;23307;51.136;14.942;2023-02-03T00:10:20;3.30;99.90
37446;DHT22;23307;51.136;14.942;2023-02-03T00:12:50;3.30;99.90
37446;DHT22;23307;51.136;14.942;2023-02-03T00:15:17;3.40;99.90
37446;DHT22;23307;51.136;14.942;2023-02-03T00:17:43;3.40;99.90
37446;DHT22;23307;51.136;14.942;2023-02-03T00:20:09;3.40;99.90
37446;DHT22;23307;51.136;14.942;2023-02-03T00:22:35;3.40;99.90
37446;DHT22;23307;51.136;14.942;2023-02-03T00:25:00;3.40;99.90
37446;DHT22;23307;51.136;14.942;2023-02-03T00:27:26;3.40;99.90
37446;DHT22;23307;51.136;14.942;2023-02-03T00:29:51;3.40;99.90
37446;DHT22;23307;51.136;14.942;2023-02-03T00:32:17;3.40;99.90
37446;DHT22;23307;51.136;14.942;2023-02-03T00:34:42;3.40;99.90
37446;DHT22;23307;51.136;14.942;2023-02-03T00:37:08;3.50;99.90
37446;DHT22;23307;51.136;14.942;2023-02-03T00:39:36;3.50;99.90
37446;DHT22;23307;51.136;14.942;2023-02-03T00:42:03;3.50;99.90
37446;DHT22;23307;51.136;14.942;2023-02-03T00:44:28;3.50;99.90
37446;DHT22;23307;51.136;14.942;2023-02-03T00:46:54;3.60;99.90
37446;DHT22;23307;51.136;14.942;2023-02-03T00:49:20;3.60;99.90
37446;DHT22;23307;51.136;14.942;2023-02-03T00:51:46;3.60;99.90
37446;DHT22;23307;51.136;14.942;2023-02-03T00:54:11;3.60;99.90
37446;DHT22;23307;51.136;14.942;2023-02-03T00:56:38;3.60;99.90
37446;DHT22;23307;51.136;14.942;2023-02-03T00:59:03;3.60;99.90
37446;DHT22;23307;51.136;14.942;2023-02-03T01:01:29;3.50;99.90
37446;DHT22;23307;51.136;14.942;2023-02-03T01:03:55;3.50;99.90
37446;DHT22;23307;51.136;14.942;2023-02-03T01:06:22;3.50;99.90
37446;DHT22;23307;51.136;14.942;2023-02-03T01:08:48;3.50;99.90
37446;DHT22;23307;51.136;14.942;2023-02-03T01:11:16;3.50;99.90
37446;DHT22;23307;51.136;14.942;2023-02-03T01:13:42;3.50;99.90
37446;DHT22;23307;51.136;14.942;2023-02-03T01:16:10;3.40;99.90
37446;DHT22;23307;51.136;14.942;2023-02-03T01:18:36;3.40;99.90
37446;DHT22;23307;51.136;14.942;2023-02-03T01:21:10;3.40;99.90
37446;DHT22;23307;51.136;14.942;2023-02-03T01:23:36;3.40;99.90
37446;DHT22;23307;51.136;14.942;2023-02-03T01:26:04;3.40;99.90
37446;DHT22;23307;51.136;14.942;2023-02-03T01:28:30;3.30;99.90
37446;DHT22;23307;51.136;14.942;2023-02-03T01:30:56;3.30;99.90
37446;DHT22;23307;51.136;14.942;2023-02-03T01:33:21;3.30;99.90
37446;DHT22;23307;51.136;14.942;2023-02-03T01:35:47;3.30;99.90
37446;DHT22;23307;51.136;14.942;2023-02-03T01:38:12;3.30;99.90
37446;DHT22;23307;51.136;14.942;2023-02-03T01:40:42;3.30;99.90
37446;DHT22;23307;51.136;14.942;2023-02-03T01:43:09;3.30;99.90
37446;DHT22;23307;51.136;14.942;2023-02-03T01:45:35;3.30;99.90
37446;DHT22;23307;51.136;14.942;2023-02-03T01:48:00;3.30;99.90
37446;DHT22;23307;51.136;14.942;2023-02-03T01:50:30;3.30;99.90
37446;DHT22;23307;51.136;14.942;2023-02-03T01:53:00;3.30;99.90
37446;DHT22;23307;51.136;14.942;2023-02-03T01:55:33;3.30;99.90
37446;DHT22;23307;51.136;14.942;2023-02-03T01:58:17;3.30;99.90
37446;DHT22;23307;51.136;14.942;2023-02-03T02:00:45;3.30;99.90
37446;DHT22;23307;51.136;14.942;2023-02-03T02:03:12;3.40;99.90
37446;DHT22;23307;51.136;14.942;2023-02-03T02:05:49;3.40;99.90
37446;DHT22;23307;51.136;14.942;2023-02-03T02:08:18;3.40;99.90
37446;DHT22;23307;51.136;14.942;2023-02-03T02:10:44;3.40;99.90
37446;DHT22;23307;51.136;14.942;2023-02-03T02:13:11;3.40;99.90
37446;DHT22;23307;51.136;14.942;2023-02-03T02:29:34;3.50;99.90
37446;DHT22;23307;51.136;14.942;2023-02-03T02:35:43;3.60;99.90
37446;DHT22;23307;51.136;14.942;2023-02-03T02:43:55;3.60;99.90
37446;DHT22;23307;51.136;14.942;2023-02-03T02:46:42;3.60;99.90
37446;DHT22;23307;51.136;14.942;2023-02-03T02:49:13;3.70;99.90
37446;DHT22;23307;51.136;14.942;2023-02-03T02:51:41;3.70;99.90
37446;DHT22;23307;51.136;14.942;2023-02-03T02:54:20;3.70;99.90
37446;DHT22;23307;51.136;14.942;2023-02-03T02:56:54;3.70;99.90
37446;DHT22;23307;51.136;14.942;2023-02-03T02:59:20;3.70;99.90
37446;DHT22;23307;51.136;14.942;2023-02-03T03:01:46;3.70;99.90
37446;DHT22;23307;51.136;14.942;2023-02-03T03:04:14;3.70;99.90
37446;DHT22;23307;51.136;14.942;2023-02-03T03:06:47;3.70;99.90
37446;DHT22;23307;51.136;14.942;2023-02-03T03:09:20;3.70;99.90
37446;DHT22;23307;51.136;14.942;2023-02-03T03:11:50;3.70;99.90
37446;DHT22;23307;51.136;14.942;2023-02-03T03:14:19;3.70;99.90
37446;DHT22;23307;51.136;14.942;2023-02-03T03:16:53;3.60;99.90
37446;DHT22;23307;51.136;14.942;2023-02-03T03:19:24;3.70;99.90
37446;DHT22;23307;51.136;14.942;2023-02-03T03:21:58;3.70;99.90
37446;DHT22;23307;51.136;14.942;2023-02-03T03:24:44;3.60;99.90
37446;DHT22;23307;51.136;14.942;2023-02-03T03:27:18;3.60;99.90
37446;DHT22;23307;51.136;14.942;2023-02-03T03:29:54;3.60;99.90
37446;DHT22;23307;51.136;14.942;2023-02-03T03:32:20;3.60;99.90
37446;DHT22;23307;51.136;14.942;2023-02-03T03:34:46;3.60;99.90
37446;DHT22;23307;51.136;14.942;2023-02-03T03:37:35;3.50;99.90
37446;DHT22;23307;51.136;14.942;2023-02-03T03:40:09;3.50;99.90
37446;DHT22;23307;51.136;14.942;2023-02-03T03:42:58;3.50;99.90
37446;DHT22;23307;51.136;14.942;2023-02-03T03:45:34;3.50;99.90
37446;DHT22;23307;51.136;14.942;2023-02-03T03:48:13;3.40;99.90
37446;DHT22;23307;51.136;14.942;2023-02-03T03:50:48;3.40;99.90
37446;DHT22;23307;51.136;14.942;2023-02-03T03:53:16;3.40;99.90
37446;DHT22;23307;51.136;14.942;2023-02-03T03:55:46;3.30;99.90
37446;DHT22;23307;51.136;14.942;2023-02-03T03:58:17;3.30;99.90
37446;DHT22;23307;51.136;14.942;2023-02-03T04:00:45;3.20;99.90
37446;DHT22;23307;51.136;14.942;2023-02-03T04:03:17;3.20;99.90
37446;DHT22;23307;51.136;14.942;2023-02-03T04:05:45;3.20;99.90
37446;DHT22;23307;51.136;14.942;2023-02-03T04:08:10;3.10;99.90
37446;DHT22;23307;51.136;14.942;2023-02-03T04:10:38;3.10;99.90
37446;DHT22;23307;51.136;14.942;2023-02-03T04:13:06;3.00;99.90
37446;DHT22;23307;51.136;14.942;2023-02-03T04:15:32;2.90;99.90
37446;DHT22;23307;51.136;14.942;2023-02-03T04:17:58;2.90;99.90
37446;DHT22;23307;51.136;14.942;2023-02-03T04:20:26;2.90;99.90
37446;DHT22;23307;51.136;14.942;2023-02-03T04:22:52;2.80;99.90
37446;DHT22;23307;51.136;14.942;2023-02-03T04:25:17;2.80;99.90
37446;DHT22;23307;51.136;14.942;2023-02-03T04:27:43;2.90;99.90
37446;DHT22;23307;51.136;14.942;2023-02-03T04:30:09;2.80;99.90
37446;DHT22;23307;51.136;14.942;2023-02-03T04:32:35;2.80;99.90
37446;DHT22;23307;51.136;14.942;2023-02-03T04:35:02;2.90;99.90
37446;DHT22;23307;51.136;14.942;2023-02-03T04:37:27;2.80;99.90
37446;DHT22;23307;51.136;14.942;2023-02-03T04:39:53;2.80;99.90
37446;DHT22;23307;51.136;14.942;2023-02-03T04:42:20;2.80;99.90
37446;DHT22;23307;51.136;14.942;2023-02-03T04:44:45;2.80;99.90
37446;DHT22;23307;51.136;14.942;2023-02-03T04:47:11;2.90;99.90
37446;DHT22;23307;51.136;14.942;2023-02-03T04:49:37;2.90;99.90
37446;DHT22;23307;51.136;14.942;2023-02-03T04:52:02;2.90;99.90
37446;DHT22;23307;51.136;14.942;2023-02-03T04:54:28;2.80;99.90
37446;DHT22;23307;51.136;14.942;2023-02-03T04:56:53;2.90;99.90
37446;DHT22;23307;51.136;14.942;2023-02-03T04:59:19;2.90;99.90
37446;DHT22;23307;51.136;14.942;2023-02-03T05:01:44;2.90;99.90
37446;DHT22;23307;51.136;14.942;2023-02-03T05:04:10;3.00;99.90
37446;DHT22;23307;51.136;14.942;2023-02-03T05:06:35;3.00;99.90
37446;DHT22;23307;51.136;14.942;2023-02-03T05:09:01;3.20;99.90
37446;DHT22;23307;51.136;14.942;2023-02-03T05:11:26;3.20;99.90
37446;DHT22;23307;51.136;14.942;2023-02-03T05:13:53;3.30;99.90
37446;DHT22;23307;51.136;14.942;2023-02-03T05:16:18;3.40;99.90
37446;DHT22;23307;51.136;14.942;2023-02-03T05:18:44;3.40;99.90
37446;DHT22;23307;51.136;14.942;2023-02-03T05:21:09;3.50;99.90
37446;DHT22;23307;51.136;14.942;2023-02-03T05:23:35;3.60;99.90
37446;DHT22;23307;51.136;14.942;2023-02-03T05:26:00;3.70;99.90
37446;DHT22;23307;51.136;14.942;2023-02-03T05:28:26;3.80;99.90
37446;DHT22;23307;51.136;14.942;2023-02-03T05:30:51;3.90;99.90
37446;DHT22;23307;51.136;14.942;2023-02-03T05:33:17;3.90;99.90
37446;DHT22;23307;51.136;14.942;2023-02-03T05:35:42;4.00;99.90
37446;DHT22;23307;51.136;14.942;2023-02-03T05:38:08;4.00;99.90
37446;DHT22;23307;51.136;14.942;2023-02-03T05:40:34;4.00;99.90
37446;DHT22;23307;51.136;14.942;2023-02-03T05:43:18;4.00;99.90
37446;DHT22;23307;51.136;14.942;2023-02-03T05:45:44;4.00;99.90
37446;DHT22;23307;51.136;14.942;2023-02-03T05:48:10;4.10;99.90
37446;DHT22;23307;51.136;14.942;2023-02-03T05:50:36;4.10;99.90
37446;DHT22;23307;51.136;14.942;2023-02-03T05:53:03;4.20;99.90
37446;DHT22;23307;51.136;14.942;2023-02-03T05:55:30;4.30;99.90
37446;DHT22;23307;51.136;14.942;2023-02-03T05:57:56;4.30;99.90
37446;DHT22;23307;51.136;14.942;2023-02-03T06:00:22;4.30;99.90
37446;DHT22;23307;51.136;14.942;2023-02-03T06:02:53;4.40;99.90
37446;DHT22;23307;51.136;14.942;2023-02-03T06:05:19;4.50;99.90
37446;DHT22;23307;51.136;14.942;2023-02-03T06:07:45;4.70;99.90
37446;DHT22;23307;51.136;14.942;2023-02-03T06:10:10;4.80;99.90
37446;DHT22;23307;51.136;14.942;2023-02-03T06:12:38;4.90;99.90
37446;DHT22;23307;51.136;14.942;2023-02-03T06:15:04;5.00;99.90
37446;DHT22;23307;51.136;14.942;2023-02-03T06:17:30;5.10;99.90
37446;DHT22;23307;51.136;14.942;2023-02-03T06:19:56;5.20;99.90
37446;DHT22;23307;51.136;14.942;2023-02-03T06:22:21;5.20;99.90
37446;DHT22;23307;51.136;14.942;2023-02-03T06:24:47;5.30;99.90
37446;DHT22;23307;51.136;14.942;2023-02-03T06:27:13;5.40;99.90
37446;DHT22;23307;51.136;14.942;2023-02-03T06:29:40;5.40;99.90
37446;DHT22;23307;51.136;14.942;2023-02-03T06:32:06;5.50;99.90
37446;DHT22;23307;51.136;14.942;2023-02-03T06:34:32;5.50;99.90
37446;DHT22;23307;51.136;14.942;2023-02-03T06:36:58;5.60;99.90
37446;DHT22;23307;51.136;14.942;2023-02-03T06:39:24;5.60;99.90
37446;DHT22;23307;51.136;14.942;2023-02-03T06:41:49;5.70;99.90
37446;DHT22;23307;51.136;14.942;2023-02-03T06:44:19;5.80;99.90
37446;DHT22;23307;51.136;14.942;2023-02-03T06:46:44;5.80;99.90
37446;DHT22;23307;51.136;14.942;2023-02-03T06:49:09;5.90;99.90
37446;DHT22;23307;51.136;14.942;2023-02-03T06:51:35;6.00;99.90
37446;DHT22;23307;51.136;14.942;2023-02-03T06:54:01;6.10;99.90
37446;DHT22;23307;51.136;14.942;2023-02-03T06:56:28;6.10;99.90
37446;DHT22;23307;51.136;14.942;2023-02-03T06:58:54;6.10;99.90
37446;DHT22;23307;51.136;14.942;2023-02-03T07:01:19;6.20;99.90
37446;DHT22;23307;51.136;14.942;2023-02-03T07:03:45;6.30;99.90
37446;DHT22;23307;51.136;14.942;2023-02-03T07:06:11;6.30;99.90
37446;DHT22;23307;51.136;14.942;2023-02-03T07:08:37;6.40;99.90
37446;DHT22;23307;51.136;14.942;2023-02-03T07:11:02;6.40;99.90
37446;DHT22;23307;51.136;14.942;2023-02-03T07:13:28;6.50;99.90
37446;DHT22;23307;51.136;14.942;2023-02-03T07:15:53;6.50;99.90
37446;DHT22;23307;51.136;14.942;2023-02-03T07:18:19;6.60;99.90
37446;DHT22;23307;51.136;14.942;2023-02-03T07:20:49;6.60;99.90
37446;DHT22;23307;51.136;14.942;2023-02-03T07:23:14;6.70;99.90
37446;DHT22;23307;51.136;14.942;2023-02-03T07:25:40;6.70;99.90
37446;DHT22;23307;51.136;14.942;2023-02-03T07:28:05;6.80;99.90
37446;DHT22;23307;51.136;14.942;2023-02-03T07:30:31;6.80;99.90
37446;DHT22;23307;51.136;14.942;2023-02-03T07:32:56;6.80;99.90
37446;DHT22;23307;51.136;14.942;2023-02-03T07:35:22;6.80;99.90
37446;DHT22;23307;51.136;14.942;2023-02-03T07:37:47;6.90;99.90
37446;DHT22;23307;51.136;14.942;2023-02-03T07:40:13;6.90;99.90
37446;DHT22;23307;51.136;14.942;2023-02-03T07:42:43;6.90;99.90
37446;DHT22;23307;51.136;14.942;2023-02-03T07:45:10;7.00;99.90
37446;DHT22;23307;51.136;14.942;2023-02-03T07:47:36;7.00;99.90
37446;DHT22;23307;51.136;14.942;2023-02-03T07:50:03;7.00;99.90
37446;DHT22;23307;51.136;14.942;2023-02-03T07:52:29;7.00;99.90
37446;DHT22;23307;51.136;14.942;2023-02-03T07:54:54;7.00;99.90
37446;DHT22;23307;51.136;14.942;2023-02-03T07:57:20;7.00;99.90
37446;DHT22;23307;51.136;14.942;2023-02-03T07:59:46;7.10;99.90
37446;DHT22;23307;51.136;14.942;2023-02-03T08:02:11;7.10;99.90
37446;DHT22;23307;51.136;14.942;2023-02-03T08:04:37;7.10;99.90
37446;DHT22;23307;51.136;14.942;2023-02-03T08:07:03;7.20;99.90
37446;DHT22;23307;51.136;14.942;2023-02-03T08:09:28;7.20;99.90
37446;DHT22;23307;51.136;14.942;2023-02-03T08:11:54;7.20;99.90
37446;DHT22;23307;51.136;14.942;2023-02-03T08:14:19;7.20;99.90
37446;DHT22;23307;51.136;14.942;2023-02-03T08:16:45;7.30;99.90
37446;DHT22;23307;51.136;14.942;2023-02-03T08:19:11;7.30;99.90
37446;DHT22;23307;51.136;14.942;2023-02-03T08:21:37;7.30;99.90
37446;DHT22;23307;51.136;14.942;2023-02-03T08:24:02;7.30;99.90
37446;DHT22;23307;51.136;14.942;2023-02-03T08:26:28;7.30;99.90
37446;DHT22;23307;51.136;14.942;2023-02-03T08:28:53;7.40;99.90
37446;DHT22;23307;51.136;14.942;2023-02-03T08:31:19;7.40;99.90
37446;DHT22;23307;51.136;14.942;2023-02-03T08:33:44;7.40;99.90
37446;DHT22;23307;51.136;14.942;2023-02-03T08:36:10;7.40;99.90
37446;DHT22;23307;51.136;14.942;2023-02-03T08:38:37;7.40;99.90
37446;DHT22;23307;51.136;14.942;2023-02-03T08:41:08;7.40;99.90
37446;DHT22;23307;51.136;14.942;2023-02-03T08:43:33;7.40;99.90
37446;DHT22;23307;51.136;14.942;2023-02-03T08:46:03;7.40;99.90
37446;DHT22;23307;51.136;14.942;2023-02-03T08:48:29;7.40;99.90
37446;DHT22;23307;51.136;14.942;2023-02-03T08:50:55;7.40;99.90
37446;DHT22;23307;51.136;14.942;2023-02-03T08:53:20;7.40;99.90
37446;DHT22;23307;51.136;14.942;2023-02-03T08:55:46;7.40;99.90
37446;DHT22;23307;51.136;14.942;2023-02-03T08:58:11;7.40;99.90
37446;DHT22;23307;51.136;14.942;2023-02-03T09:00:37;7.40;99.90
37446;DHT22;23307;51.136;14.942;2023-02-03T09:03:03;7.40;99.90
37446;DHT22;23307;51.136;14.942;2023-02-03T09:05:30;7.30;99.90
37446;DHT22;23307;51.136;14.942;2023-02-03T09:07:55;7.30;99.90
37446;DHT22;23307;51.136;14.942;2023-02-03T09:10:21;7.30;99.90
37446;DHT22;23307;51.136;14.942;2023-02-03T09:12:46;7.30;99.90
37446;DHT22;23307;51.136;14.942;2023-02-03T09:15:12;7.30;99.90
37446;DHT22;23307;51.136;14.942;2023-02-03T09:17:38;7.30;99.90
37446;DHT22;23307;51.136;14.942;2023-02-03T09:20:04;7.30;99.90
37446;DHT22;23307;51.136;14.942;2023-02-03T09:22:29;7.30;99.90
37446;DHT22;23307;51.136;14.942;2023-02-03T09:24:55;7.30;99.90
37446;DHT22;23307;51.136;14.942;2023-02-03T09:27:20;7.30;99.90
37446;DHT22;23307;51.136;14.942;2023-02-03T09:29:46;7.30;99.90
37446;DHT22;23307;51.136;14.942;2023-02-03T09:32:11;7.30;99.90
37446;DHT22;23307;51.136;14.942;2023-02-03T09:34:37;7.30;99.90
37446;DHT22;23307;51.136;14.942;2023-02-03T09:37:04;7.30;99.90
37446;DHT22;23307;51.136;14.942;2023-02-03T09:39:29;7.30;99.90
37446;DHT22;23307;51.136;14.942;2023-02-03T09:45:09;7.30;99.90
37446;DHT22;23307;51.136;14.942;2023-02-03T09:47:39;7.30;99.90
37446;DHT22;23307;51.136;14.942;2023-02-03T09:50:11;7.30;99.90
37446;DHT22;23307;51.136;14.942;2023-02-03T09:52:39;7.30;99.90
37446;DHT22;23307;51.136;14.942;2023-02-03T09:55:33;7.30;99.90
37446;DHT22;23307;51.136;14.942;2023-02-03T09:58:10;7.30;99.90
37446;DHT22;23307;51.136;14.942;2023-02-03T10:00:55;7.30;99.90
37446;DHT22;23307;51.136;14.942;2023-02-03T10:06:24;7.30;99.90
37446;DHT22;23307;51.136;14.942;2023-02-03T10:09:18;7.40;99.90
37446;DHT22;23307;51.136;14.942;2023-02-03T10:15:15;7.40;99.90
37446;DHT22;23307;51.136;14.942;2023-02-03T10:17:53;7.40;99.90
37446;DHT22;23307;51.136;14.942;2023-02-03T10:20:50;7.40;99.90
37446;DHT22;23307;51.136;14.942;2023-02-03T10:23:22;7.40;99.90
37446;DHT22;23307;51.136;14.942;2023-02-03T10:25:51;7.50;99.90
37446;DHT22;23307;51.136;14.942;2023-02-03T10:28:22;7.50;99.90
37446;DHT22;23307;51.136;14.942;2023-02-03T10:30:57;7.50;99.90
37446;DHT22;23307;51.136;14.942;2023-02-03T10:33:29;7.50;99.90
37446;DHT22;23307;51.136;14.942;2023-02-03T10:36:14;7.50;99.90
37446;DHT22;23307;51.136;14.942;2023-02-03T10:41:23;7.50;99.90
37446;DHT22;23307;51.136;14.942;2023-02-03T10:43:50;7.50;99.90
37446;DHT22;23307;51.136;14.942;2023-02-03T10:46:31;7.40;99.90
37446;DHT22;23307;51.136;14.942;2023-02-03T10:48:58;7.50;99.90
37446;DHT22;23307;51.136;14.942;2023-02-03T10:51:47;7.50;99.90
37446;DHT22;23307;51.136;14.942;2023-02-03T10:54:32;7.50;99.90
37446;DHT22;23307;51.136;14.942;2023-02-03T10:57:03;7.50;99.90
37446;DHT22;23307;51.136;14.942;2023-02-03T10:59:33;7.50;99.90
37446;DHT22;23307;51.136;14.942;2023-02-03T11:01:59;7.50;99.90
37446;DHT22;23307;51.136;14.942;2023-02-03T11:04:32;7.50;99.90
37446;DHT22;23307;51.136;14.942;2023-02-03T11:07:00;7.60;99.90
37446;DHT22;23307;51.136;14.942;2023-02-03T11:09:40;7.60;99.90
37446;DHT22;23307;51.136;14.942;2023-02-03T11:12:13;7.60;99.90
37446;DHT22;23307;51.136;14.942;2023-02-03T11:14:44;7.60;99.90
37446;DHT22;23307;51.136;14.942;2023-02-03T11:19:48;7.70;99.90
37446;DHT22;23307;51.136;14.942;2023-02-03T11:22:30;7.70;99.90
37446;DHT22;23307;51.136;14.942;2023-02-03T11:24:57;7.70;99.90
37446;DHT22;23307;51.136;14.942;2023-02-03T11:27:24;7.70;99.90
37446;DHT22;23307;51.136;14.942;2023-02-03T11:30:09;7.70;99.90
37446;DHT22;23307;51.136;14.942;2023-02-03T11:32:38;7.70;99.90
37446;DHT22;23307;51.136;14.942;2023-02-03T11:35:18;7.70;99.90
37446;DHT22;23307;51.136;14.942;2023-02-03T11:37:50;7.70;99.90
37446;DHT22;23307;51.136;14.942;2023-02-03T11:42:58;7.80;99.90
37446;DHT22;23307;51.136;14.942;2023-02-03T11:48:10;7.80;99.90
37446;DHT22;23307;51.136;14.942;2023-02-03T11:50:46;7.80;99.90
37446;DHT22;23307;51.136;14.942;2023-02-03T11:53:44;7.80;99.90
37446;DHT22;23307;51.136;14.942;2023-02-03T11:59:13;7.90;99.90
37446;DHT22;23307;51.136;14.942;2023-02-03T12:07:53;7.90;99.90
37446;DHT22;23307;51.136;14.942;2023-02-03T12:10:29;7.90;99.90
37446;DHT22;23307;51.136;14.942;2023-02-03T12:16:09;8.00;99.90
37446;DHT22;23307;51.136;14.942;2023-02-03T12:19:05;8.00;99.90
37446;DHT22;23307;51.136;14.942;2023-02-03T12:26:54;8.00;99.90
37446;DHT22;23307;51.136;14.942;2023-02-03T12:29:27;8.00;99.90
37446;DHT22;23307;51.136;14.942;2023-02-03T12:32:15;8.00;99.90
37446;DHT22;23307;51.136;14.942;2023-02-03T12:35:02;7.90;99.90
37446;DHT22;23307;51.136;14.942;2023-02-03T12:37:41;7.90;99.90
37446;DHT22;23307;51.136;14.942;2023-02-03T12:40:21;7.90;99.90
37446;DHT22;23307;51.136;14.942;2023-02-03T12:43:30;7.90;99.90
37446;DHT22;23307;51.136;14.942;2023-02-03T12:46:08;7.90;99.90
37446;DHT22;23307;51.136;14.942;2023-02-03T12:48:44;7.90;99.90
37446;DHT22;23307;51.136;14.942;2023-02-03T12:51:17;7.90;99.90
37446;DHT22;23307;51.136;14.942;2023-02-03T12:53:52;7.90;99.90
37446;DHT22;23307;51.136;14.942;2023-02-03T12:56:29;7.80;99.90
37446;DHT22;23307;51.136;14.942;2023-02-03T12:59:05;7.80;99.90
37446;DHT22;23307;51.136;14.942;2023-02-03T13:01:41;7.90;99.90
37446;DHT22;23307;51.136;14.942;2023-02-03T13:04:25;7.90;99.90
37446;DHT22;23307;51.136;14.942;2023-02-03T13:07:03;7.80;99.90
37446;DHT22;23307;51.136;14.942;2023-02-03T13:10:33;7.80;99.90
37446;DHT22;23307;51.136;14.942;2023-02-03T13:12:43;7.10;99.90
37446;DHT22;23307;51.136;14.942;2023-02-03T13:15:32;6.30;99.90
37446;DHT22;23307;51.136;14.942;2023-02-03T13:18:25;5.80;99.90
37446;DHT22;23307;51.136;14.942;2023-02-03T13:20:53;5.40;99.90
37446;DHT22;23307;51.136;14.942;2023-02-03T13:23:20;5.20;99.90
37446;DHT22;23307;51.136;14.942;2023-02-03T13:31:45;5.00;99.90
37446;DHT22;23307;51.136;14.942;2023-02-03T13:34:41;5.00;99.90
37446;DHT22;23307;51.136;14.942;2023-02-03T13:37:33;5.10;99.90
37446;DHT22;23307;51.136;14.942;2023-02-03T13:40:27;5.20;99.90
37446;DHT22;23307;51.136;14.942;2023-02-03T13:42:58;5.30;99.90
37446;DHT22;23307;51.136;14.942;2023-02-03T13:45:32;5.50;99.90
37446;DHT22;23307;51.136;14.942;2023-02-03T13:48:29;5.60;99.90
37446;DHT22;23307;51.136;14.942;2023-02-03T13:51:12;5.80;99.90
37446;DHT22;23307;51.136;14.942;2023-02-03T13:53:40;6.30;99.90
37446;DHT22;23307;51.136;14.942;2023-02-03T13:56:14;6.40;99.90
37446;DHT22;23307;51.136;14.942;2023-02-03T13:58:40;6.60;99.90
37446;DHT22;23307;51.136;14.942;2023-02-03T14:01:27;6.80;99.90
37446;DHT22;23307;51.136;14.942;2023-02-03T14:03:55;7.00;99.90
37446;DHT22;23307;51.136;14.942;2023-02-03T14:09:21;7.50;99.90
37446;DHT22;23307;51.136;14.942;2023-02-03T14:11:51;7.60;99.90
37446;DHT22;23307;51.136;14.942;2023-02-03T14:16:51;7.80;99.90
37446;DHT22;23307;51.136;14.942;2023-02-03T14:21:57;7.70;99.90
37446;DHT22;23307;51.136;14.942;2023-02-03T14:24:39;7.50;99.90
37446;DHT22;23307;51.136;14.942;2023-02-03T14:27:22;7.60;99.90
37446;DHT22;23307;51.136;14.942;2023-02-03T14:32:53;7.90;99.90
37446;DHT22;23307;51.136;14.942;2023-02-03T14:35:39;8.10;99.90
37446;DHT22;23307;51.136;14.942;2023-02-03T14:38:10;8.10;99.90
37446;DHT22;23307;51.136;14.942;2023-02-03T14:43:29;7.80;99.90
37446;DHT22;23307;51.136;14.942;2023-02-03T14:46:20;7.60;99.90
37446;DHT22;23307;51.136;14.942;2023-02-03T14:49:20;7.40;99.90
37446;DHT22;23307;51.136;14.942;2023-02-03T14:54:56;7.20;99.90
37446;DHT22;23307;51.136;14.942;2023-02-03T14:57:39;7.10;99.90
37446;DHT22;23307;51.136;14.942;2023-02-03T15:00:07;7.10;99.90
37446;DHT22;23307;51.136;14.942;2023-02-03T15:03:15;7.00;99.90
37446;DHT22;23307;51.136;14.942;2023-02-03T15:08:32;6.70;99.90
37446;DHT22;23307;51.136;14.942;2023-02-03T15:11:13;6.60;99.90
37446;DHT22;23307;51.136;14.942;2023-02-03T15:13:39;6.50;99.90
37446;DHT22;23307;51.136;14.942;2023-02-03T15:16:11;6.40;99.90
37446;DHT22;23307;51.136;14.942;2023-02-03T15:18:39;6.40;99.90
37446;DHT22;23307;51.136;14.942;2023-02-03T15:21:12;6.30;99.90
37446;DHT22;23307;51.136;14.942;2023-02-03T15:23:41;6.20;99.90
37446;DHT22;23307;51.136;14.942;2023-02-03T15:26:21;6.20;99.90
37446;DHT22;23307;51.136;14.942;2023-02-03T15:28:59;6.20;99.90
37446;DHT22;23307;51.136;14.942;2023-02-03T15:31:42;6.10;99.90
37446;DHT22;23307;51.136;14.942;2023-02-03T15:34:16;6.10;99.90
37446;DHT22;23307;51.136;14.942;2023-02-03T15:36:47;6.00;99.90
37446;DHT22;23307;51.136;14.942;2023-02-03T15:39:33;6.00;99.90
37446;DHT22;23307;51.136;14.942;2023-02-03T15:42:01;5.90;99.90
37446;DHT22;23307;51.136;14.942;2023-02-03T15:44:33;5.90;99.90
37446;DHT22;23307;51.136;14.942;2023-02-03T15:47:01;5.90;99.90
37446;DHT22;23307;51.136;14.942;2023-02-03T15:49:32;5.80;99.90
37446;DHT22;23307;51.136;14.942;2023-02-03T15:52:08;5.80;99.90
37446;DHT22;23307;51.136;14.942;2023-02-03T15:54:37;5.80;99.90
37446;DHT22;23307;51.136;14.942;2023-02-03T15:57:08;5.80;99.90
37446;DHT22;23307;51.136;14.942;2023-02-03T16:02:06;5.80;99.90
37446;DHT22;23307;51.136;14.942;2023-02-03T16:04:37;5.80;99.90
37446;DHT22;23307;51.136;14.942;2023-02-03T16:07:03;5.80;99.90
37446;DHT22;23307;51.136;14.942;2023-02-03T16:09:42;5.90;99.90
37446;DHT22;23307;51.136;14.942;2023-02-03T16:14:41;5.80;99.90
37446;DHT22;23307;51.136;14.942;2023-02-03T16:17:31;5.80;99.90
37446;DHT22;23307;51.136;14.942;2023-02-03T16:20:25;5.80;99.90
37446;DHT22;23307;51.136;14.942;2023-02-03T16:23:05;5.90;99.90
37446;DHT22;23307;51.136;14.942;2023-02-03T16:25:33;5.90;99.90
37446;DHT22;23307;51.136;14.942;2023-02-03T16:28:00;5.90;99.90
37446;DHT22;23307;51.136;14.942;2023-02-03T16:30:56;5.90;99.90
37446;DHT22;23307;51.136;14.942;2023-02-03T16:33:48;5.90;99.90
37446;DHT22;23307;51.136;14.942;2023-02-03T16:36:38;5.80;99.90
37446;DHT22;23307;51.136;14.942;2023-02-03T16:39:22;5.80;99.90
37446;DHT22;23307;51.136;14.942;2023-02-03T16:42:14;5.80;99.90
37446;DHT22;23307;51.136;14.942;2023-02-03T16:44:59;5.80;99.90
37446;DHT22;23307;51.136;14.942;2023-02-03T16:47:44;5.80;99.90
37446;DHT22;23307;51.136;14.942;2023-02-03T16:50:29;5.80;99.90
37446;DHT22;23307;51.136;14.942;2023-02-03T16:53:16;5.80;99.90
37446;DHT22;23307;51.136;14.942;2023-02-03T16:55:43;5.80;99.90
37446;DHT22;23307;51.136;14.942;2023-02-03T16:58:08;5.80;99.90
37446;DHT22;23307;51.136;14.942;2023-02-03T17:00:36;5.80;99.90
37446;DHT22;23307;51.136;14.942;2023-02-03T17:03:05;5.90;99.90
37446;DHT22;23307;51.136;14.942;2023-02-03T17:05:36;5.90;99.90
37446;DHT22;23307;51.136;14.942;2023-02-03T17:08:02;5.90;99.90
37446;DHT22;23307;51.136;14.942;2023-02-03T17:10:28;5.90;99.90
37446;DHT22;23307;51.136;14.942;2023-02-03T17:12:53;5.90;99.90
37446;DHT22;23307;51.136;14.942;2023-02-03T17:15:19;5.90;99.90
37446;DHT22;23307;51.136;14.942;2023-02-03T17:17:44;6.00;99.90
37446;DHT22;23307;51.136;14.942;2023-02-03T17:20:10;6.00;99.90
37446;DHT22;23307;51.136;14.942;2023-02-03T17:22:36;6.00;99.90
37446;DHT22;23307;51.136;14.942;2023-02-03T17:25:01;6.00;99.90